Terminal Aerodrome Forecast
Issued by NWS

Home | Current Version | Previous Version | Graphics & Text | Print | Product List | Glossary On
Versions: 1 2 3 4 5 6 7 8 9 10 11 12
981
FTUS43 KMPX 181132
TAFAXN
TAF
KAXN 181132Z 1812/1912 25008KT P6SM SKC
     FM190400 21006KT P6SM SCT250=

USA.gov is the U.S. government's official web portal to all federal, state and local government web resources and services.